createdAt,value
2023-01-18T09:40:58.100Z,77.30
2023-01-18T09:43:40.992Z,77.70
2023-01-18T09:46:24.219Z,77.60
2023-01-18T09:48:59.295Z,78.00
2023-01-18T09:51:50.490Z,78.20
2023-01-18T09:54:39.548Z,78.60
2023-01-18T09:57:30.907Z,78.40
2023-01-18T10:00:01.849Z,78.80
2023-01-18T10:02:42.790Z,78.90
2023-01-18T10:05:18.671Z,78.50
2023-01-18T10:08:04.656Z,78.90
2023-01-18T10:10:41.383Z,78.90
2023-01-18T10:13:21.603Z,79.50
2023-01-18T10:15:52.320Z,79.40
2023-01-18T10:18:33.618Z,79.30
2023-01-18T10:21:05.916Z,79.20
2023-01-18T10:23:41.919Z,79.30
2023-01-18T10:26:15.396Z,79.10
2023-01-18T10:29:09.263Z,79.00
2023-01-18T10:32:01.159Z,79.20
2023-01-18T10:37:42.128Z,79.10
2023-01-18T10:56:47.530Z,79.50
2023-01-18T10:59:27.976Z,79.90
2023-01-18T11:01:59.922Z,79.90
2023-01-18T11:04:35.108Z,79.80
2023-01-18T11:07:07.344Z,80.10
2023-01-18T11:09:41.209Z,80.50
2023-01-18T11:12:44.821Z,80.50
2023-01-18T11:15:25.358Z,80.60
2023-01-18T11:18:02.687Z,80.90
2023-01-18T11:20:49.325Z,81.10
2023-01-18T11:23:34.714Z,81.20
2023-01-18T11:26:12.226Z,81.20
2023-01-18T11:28:57.421Z,81.30
2023-01-18T11:31:28.354Z,81.50
2023-01-18T11:34:04.554Z,82.10
2023-01-18T11:36:45.571Z,81.90
2023-01-18T11:39:35.868Z,82.00
2023-01-18T11:42:19.317Z,82.20
2023-01-18T11:44:56.104Z,82.30
2023-01-18T11:47:39.866Z,82.10
2023-01-18T11:50:24.795Z,82.20
2023-01-18T11:52:56.487Z,82.10
2023-01-18T22:03:17.106Z,63.60
2023-01-18T22:05:46.612Z,63.50
2023-01-18T22:08:16.083Z,63.50
2023-01-18T22:10:49.196Z,62.90
2023-01-18T22:13:18.643Z,63.00
2023-01-18T22:15:48.130Z,64.00
2023-01-18T22:18:17.684Z,63.30
2023-01-18T22:20:47.149Z,63.00
2023-01-18T22:23:16.693Z,62.40
2023-01-18T22:25:46.220Z,62.10
2023-01-18T22:28:15.622Z,62.10
2023-01-18T22:30:45.116Z,61.60
2023-01-18T22:33:15.072Z,61.10
2023-01-18T22:35:45.472Z,62.40
2023-01-18T22:38:14.953Z,61.70
2023-01-18T22:40:44.434Z,61.30
2023-01-18T22:43:16.750Z,61.00
2023-01-18T22:45:46.240Z,61.20
2023-01-18T22:48:16.087Z,60.60
2023-01-18T22:50:46.041Z,60.00
2023-01-18T22:53:15.470Z,60.60
2023-01-18T22:55:44.931Z,59.40
2023-01-18T22:58:14.694Z,60.10
2023-01-18T23:00:45.181Z,59.20
2023-01-18T23:03:16.706Z,59.10
2023-01-18T23:05:54.644Z,59.10
2023-01-18T23:08:24.727Z,58.80
2023-01-18T23:11:01.094Z,58.40
2023-01-18T23:13:30.824Z,57.90
2023-01-18T23:16:18.698Z,58.50
2023-01-18T23:18:48.270Z,58.20
2023-01-18T23:21:17.650Z,58.30
2023-01-18T23:23:47.042Z,57.90
2023-01-18T23:26:17.673Z,57.90
2023-01-18T23:28:47.180Z,58.30
2023-01-18T23:31:18.122Z,57.60
2023-01-18T23:33:47.702Z,58.40
2023-01-18T23:36:17.209Z,57.90
2023-01-18T23:39:04.720Z,57.70
2023-01-18T23:41:52.280Z,58.90
2023-01-18T23:44:39.519Z,57.80
2023-01-18T23:47:26.950Z,56.90
2023-01-18T23:50:14.551Z,57.30
2023-01-18T23:53:02.285Z,57.80
2023-01-18T23:55:31.647Z,58.10
2023-01-18T23:58:01.363Z,58.30
